createdAt,value
2017-08-31T00:01:23.646Z,23.27
2017-08-31T00:03:50.234Z,23.43
2017-08-31T00:06:16.834Z,25.67
2017-08-31T00:08:43.422Z,28.60
2017-08-31T00:11:10.010Z,29.30
2017-08-31T00:13:36.609Z,24.97
2017-08-31T00:16:03.198Z,26.50
2017-08-31T00:18:29.793Z,29.67
2017-08-31T00:20:56.382Z,32.97
2017-08-31T00:23:22.973Z,28.60
2017-08-31T00:25:49.595Z,25.13
2017-08-31T00:28:16.207Z,26.63
2017-08-31T00:30:42.798Z,25.40
2017-08-31T00:33:09.393Z,24.83
2017-08-31T00:35:35.978Z,26.07
2017-08-31T00:38:02.574Z,26.13
2017-08-31T00:40:29.158Z,27.37
2017-08-31T00:42:55.753Z,29.20
2017-08-31T00:45:22.343Z,30.47
2017-08-31T00:47:48.922Z,31.30
2017-08-31T00:50:15.523Z,27.80
2017-08-31T00:52:42.113Z,35.17
2017-08-31T00:55:08.713Z,26.67
2017-08-31T00:57:35.299Z,23.13
2017-08-31T01:00:01.893Z,24.57
2017-08-31T01:02:28.479Z,25.53
2017-08-31T01:04:55.080Z,26.77
2017-08-31T01:07:21.675Z,26.33
2017-08-31T01:09:48.271Z,26.30
2017-08-31T01:12:14.876Z,27.53
2017-08-31T01:14:41.462Z,24.90
2017-08-31T01:17:08.154Z,25.40
2017-08-31T01:19:34.732Z,26.57
2017-08-31T01:22:01.401Z,25.30
2017-08-31T01:24:28.003Z,25.77
2017-08-31T01:26:54.593Z,26.03
2017-08-31T01:29:21.342Z,27.83
2017-08-31T01:31:47.927Z,28.20
2017-08-31T01:34:14.517Z,30.97
2017-08-31T01:36:41.114Z,30.73
2017-08-31T01:39:07.698Z,31.90
2017-08-31T01:41:34.285Z,30.73
2017-08-31T01:44:00.870Z,31.07
2017-08-31T01:46:27.479Z,39.87
2017-08-31T01:48:54.057Z,28.90
2017-08-31T01:51:20.646Z,21.37
2017-08-31T01:53:47.240Z,26.20
2017-08-31T01:56:13.825Z,29.03
2017-08-31T01:58:40.457Z,19.53
2017-08-31T02:01:07.046Z,13.90
2017-08-31T02:03:33.635Z,12.83
2017-08-31T02:06:00.221Z,13.87
2017-08-31T02:08:26.815Z,14.23
2017-08-31T02:10:53.414Z,16.70
2017-08-31T02:13:20.001Z,15.57
2017-08-31T02:15:46.589Z,16.37
2017-08-31T02:18:13.175Z,13.80
2017-08-31T02:20:39.762Z,13.67
2017-08-31T02:23:06.357Z,12.30
2017-08-31T02:25:32.934Z,12.83
2017-08-31T02:27:59.510Z,14.30
2017-08-31T02:30:26.107Z,14.27
2017-08-31T02:32:52.682Z,13.70
2017-08-31T02:35:19.282Z,15.73
2017-08-31T02:37:45.862Z,16.73
2017-08-31T02:40:12.449Z,21.07
2017-08-31T02:42:39.046Z,19.73
2017-08-31T02:45:05.636Z,19.60
2017-08-31T02:47:32.266Z,28.10
2017-08-31T02:49:58.868Z,26.73
2017-08-31T02:52:25.460Z,23.80
2017-08-31T02:54:52.029Z,36.10
2017-08-31T02:57:18.609Z,25.30
2017-08-31T02:59:45.213Z,19.53
2017-08-31T03:02:11.806Z,17.30
2017-08-31T03:04:38.389Z,14.60
2017-08-31T03:07:04.982Z,14.83
2017-08-31T03:09:31.595Z,12.47
2017-08-31T03:11:58.182Z,15.13
2017-08-31T03:14:24.766Z,12.07
2017-08-31T03:16:51.353Z,30.40
2017-08-31T03:19:17.950Z,19.67
2017-08-31T03:21:44.526Z,18.90
2017-08-31T03:24:11.110Z,17.97
2017-08-31T03:26:37.702Z,20.87
2017-08-31T03:29:04.319Z,19.10
2017-08-31T03:31:30.878Z,14.33
2017-08-31T03:33:57.463Z,29.83
2017-08-31T03:36:24.042Z,21.40
2017-08-31T03:38:50.642Z,18.57
2017-08-31T03:41:17.223Z,19.17
2017-08-31T03:43:43.805Z,19.80
2017-08-31T03:46:10.397Z,24.20
2017-08-31T03:48:37.009Z,19.50
2017-08-31T03:51:03.606Z,16.50
2017-08-31T03:53:30.185Z,17.70
2017-08-31T03:55:56.779Z,19.07
2017-08-31T03:58:23.365Z,20.03
2017-08-31T04:00:49.942Z,17.73
2017-08-31T04:03:16.547Z,13.37
2017-08-31T04:05:43.149Z,14.50
2017-08-31T04:08:09.713Z,15.73
2017-08-31T04:10:36.305Z,10.50
2017-08-31T04:13:02.878Z,9.67
2017-08-31T04:15:29.489Z,7.47
2017-08-31T04:17:56.061Z,8.67
2017-08-31T04:20:22.638Z,7.07
2017-08-31T04:22:49.221Z,7.83
2017-08-31T04:25:15.804Z,7.57
2017-08-31T04:27:42.393Z,8.93
2017-08-31T04:30:08.970Z,8.80
2017-08-31T04:32:35.551Z,8.30
2017-08-31T04:35:02.134Z,9.43
2017-08-31T04:37:28.726Z,14.53
2017-08-31T04:39:55.330Z,8.37
2017-08-31T04:42:25.413Z,9.33
2017-08-31T04:44:51.986Z,8.83
2017-08-31T04:47:18.576Z,9.80
2017-08-31T04:49:45.155Z,10.90
2017-08-31T04:52:11.746Z,10.10
2017-08-31T04:54:38.329Z,9.43
2017-08-31T04:57:04.918Z,13.10
2017-08-31T04:59:31.550Z,12.43
2017-08-31T05:01:58.185Z,9.17
2017-08-31T05:04:24.784Z,11.00
2017-08-31T05:06:51.467Z,8.20
2017-08-31T05:09:18.034Z,8.30
2017-08-31T05:11:44.624Z,10.07
2017-08-31T05:14:11.200Z,9.87
2017-08-31T05:16:37.801Z,11.40
2017-08-31T05:19:04.381Z,7.83
2017-08-31T05:21:31.052Z,8.60
2017-08-31T05:23:57.643Z,8.27
2017-08-31T05:26:24.222Z,8.60
2017-08-31T05:28:50.816Z,8.53
2017-08-31T05:31:17.389Z,11.93
2017-08-31T05:33:43.980Z,7.37
2017-08-31T05:36:10.586Z,7.33
2017-08-31T05:38:37.172Z,9.40
2017-08-31T05:41:03.769Z,10.93
2017-08-31T05:43:30.353Z,8.13
2017-08-31T05:45:56.934Z,8.87
2017-08-31T05:48:23.516Z,7.80
2017-08-31T05:50:50.088Z,6.53
2017-08-31T05:53:16.701Z,7.37
2017-08-31T05:55:43.269Z,8.80
2017-08-31T05:58:09.841Z,9.97
2017-08-31T06:00:36.427Z,10.53
2017-08-31T06:03:03.009Z,9.90
2017-08-31T06:05:29.618Z,7.90
2017-08-31T06:07:56.190Z,8.27
2017-08-31T06:10:22.779Z,10.53
2017-08-31T06:12:49.372Z,10.50
2017-08-31T06:15:15.958Z,9.60
2017-08-31T06:17:42.545Z,11.00
2017-08-31T06:20:09.129Z,11.90
2017-08-31T06:22:35.720Z,15.00
2017-08-31T06:25:02.311Z,11.57
2017-08-31T06:27:28.890Z,12.20
2017-08-31T06:29:55.497Z,10.13
2017-08-31T06:32:22.072Z,9.53
2017-08-31T06:34:48.641Z,8.20
2017-08-31T06:37:15.230Z,7.67
2017-08-31T06:39:41.810Z,7.60
2017-08-31T06:42:08.409Z,7.27
2017-08-31T06:44:35.006Z,5.40
2017-08-31T06:47:01.581Z,5.70
2017-08-31T06:49:28.298Z,6.90
2017-08-31T06:51:54.882Z,4.97
2017-08-31T06:54:21.514Z,5.50
2017-08-31T06:56:48.074Z,3.90
2017-08-31T06:59:14.657Z,3.80
2017-08-31T07:01:41.242Z,4.50
2017-08-31T07:04:07.839Z,7.07
2017-08-31T07:06:34.424Z,5.10
2017-08-31T07:09:01.045Z,5.50
2017-08-31T07:11:27.611Z,4.63
2017-08-31T07:13:54.413Z,4.70
2017-08-31T07:16:21.005Z,5.40
2017-08-31T07:18:47.613Z,6.23
2017-08-31T07:21:14.186Z,6.00
2017-08-31T07:23:40.793Z,5.07
2017-08-31T07:26:07.360Z,6.27
2017-08-31T07:28:33.954Z,8.27
2017-08-31T07:31:00.530Z,5.47
2017-08-31T07:33:27.113Z,6.50
2017-08-31T07:35:53.697Z,6.27
2017-08-31T07:38:20.273Z,7.37
2017-08-31T07:40:46.865Z,9.30
2017-08-31T07:43:13.456Z,6.63
2017-08-31T07:45:40.018Z,6.67
2017-08-31T07:48:06.606Z,10.20
2017-08-31T07:50:33.182Z,7.30
2017-08-31T07:52:59.774Z,6.17
2017-08-31T07:55:26.353Z,6.90
2017-08-31T07:57:52.929Z,6.50
2017-08-31T08:00:19.550Z,6.50
2017-08-31T08:02:46.124Z,7.60
2017-08-31T08:05:12.721Z,6.30
2017-08-31T08:07:39.293Z,9.20
2017-08-31T08:10:05.892Z,7.40
2017-08-31T08:12:32.466Z,8.37
2017-08-31T08:14:59.048Z,9.70
2017-08-31T08:17:25.637Z,8.10
2017-08-31T08:19:52.222Z,10.10
2017-08-31T08:22:18.801Z,11.67
2017-08-31T08:24:45.399Z,12.00
2017-08-31T08:27:11.972Z,10.23
2017-08-31T08:29:38.574Z,8.40
2017-08-31T08:32:05.149Z,7.80
2017-08-31T08:34:31.736Z,9.60
2017-08-31T08:36:58.325Z,9.73
2017-08-31T08:39:24.900Z,8.07
2017-08-31T08:41:51.505Z,9.57
2017-08-31T08:44:18.184Z,8.87
2017-08-31T08:46:44.750Z,11.10
2017-08-31T08:49:11.334Z,7.80
2017-08-31T08:51:37.909Z,8.90
2017-08-31T08:54:04.511Z,10.07
2017-08-31T08:56:31.089Z,8.87
2017-08-31T08:58:57.673Z,10.00
2017-08-31T09:01:24.257Z,8.83
2017-08-31T09:03:50.833Z,9.43
2017-08-31T09:06:17.430Z,8.87
2017-08-31T09:08:44.015Z,11.13
2017-08-31T09:11:10.590Z,8.73
2017-08-31T09:13:37.190Z,14.53
2017-08-31T09:16:03.773Z,8.37
2017-08-31T09:18:30.369Z,8.53
2017-08-31T09:20:56.948Z,9.87
2017-08-31T09:23:23.539Z,11.27
2017-08-31T09:25:50.117Z,8.27
2017-08-31T09:28:16.701Z,11.37
2017-08-31T09:30:43.293Z,11.70
2017-08-31T09:33:09.881Z,14.67
2017-08-31T09:35:36.463Z,12.93
2017-08-31T09:38:03.063Z,12.60
2017-08-31T09:40:29.646Z,16.67
2017-08-31T09:42:56.246Z,15.20
2017-08-31T09:45:22.838Z,13.03
2017-08-31T09:47:49.421Z,13.70
2017-08-31T09:50:16.009Z,10.80
2017-08-31T09:52:42.585Z,10.80
2017-08-31T09:55:09.161Z,9.27
2017-08-31T09:57:35.759Z,7.90
2017-08-31T10:00:02.334Z,6.83
2017-08-31T10:02:28.922Z,5.73
2017-08-31T10:04:55.513Z,5.43
2017-08-31T10:07:22.914Z,7.67
2017-08-31T10:09:49.494Z,5.40
2017-08-31T10:12:16.085Z,5.33
2017-08-31T10:14:42.666Z,5.30
2017-08-31T10:17:09.238Z,4.60
2017-08-31T10:19:35.844Z,5.13
2017-08-31T10:22:02.458Z,7.03
2017-08-31T10:24:29.040Z,5.07
2017-08-31T10:26:55.632Z,6.13
2017-08-31T10:29:22.214Z,6.40
2017-08-31T10:31:48.790Z,6.93
2017-08-31T10:34:15.381Z,8.93
2017-08-31T10:36:41.958Z,9.90
2017-08-31T10:39:08.550Z,7.17
2017-08-31T10:41:35.146Z,8.70
2017-08-31T10:44:01.725Z,8.90
2017-08-31T10:46:28.302Z,8.43
2017-08-31T10:48:54.905Z,10.73
2017-08-31T10:51:21.494Z,10.27
2017-08-31T10:53:48.073Z,8.00
2017-08-31T10:56:14.669Z,8.57
2017-08-31T10:58:41.284Z,9.27
2017-08-31T11:01:07.865Z,10.30
2017-08-31T11:03:34.468Z,9.97
2017-08-31T11:06:01.044Z,9.00
2017-08-31T11:08:27.622Z,9.30
2017-08-31T11:10:54.222Z,8.90
2017-08-31T11:13:20.804Z,10.03
2017-08-31T11:15:47.398Z,7.60
2017-08-31T11:18:14.058Z,8.87
2017-08-31T11:20:40.613Z,6.97
2017-08-31T11:23:07.218Z,8.43
2017-08-31T11:25:33.820Z,9.13
2017-08-31T11:28:00.488Z,6.67
2017-08-31T11:30:27.050Z,7.10
2017-08-31T11:32:53.557Z,6.30
2017-08-31T11:35:20.291Z,6.50
2017-08-31T11:37:46.753Z,5.77
2017-08-31T11:40:13.350Z,5.73
2017-08-31T11:42:39.926Z,7.43
2017-08-31T11:45:06.506Z,10.80
2017-08-31T11:47:39.111Z,10.90
2017-08-31T11:50:05.737Z,6.90
2017-08-31T11:52:32.369Z,7.40
2017-08-31T11:54:58.946Z,6.60
2017-08-31T11:57:33.968Z,8.00
2017-08-31T12:00:00.565Z,12.43
2017-08-31T12:02:34.197Z,11.30
2017-08-31T12:05:00.823Z,11.87
2017-08-31T12:07:27.397Z,9.53
2017-08-31T12:09:57.121Z,6.23
2017-08-31T12:12:27.023Z,7.47
2017-08-31T12:14:53.602Z,5.93
2017-08-31T12:17:20.181Z,9.67
2017-08-31T12:19:57.361Z,5.90
2017-08-31T12:22:23.939Z,5.50
2017-08-31T12:24:50.513Z,5.23
2017-08-31T12:27:17.114Z,5.27
2017-08-31T12:29:43.689Z,5.13
2017-08-31T12:32:10.273Z,4.53
2017-08-31T12:34:36.861Z,3.80
2017-08-31T12:37:03.437Z,4.00
2017-08-31T12:39:30.043Z,5.40
2017-08-31T12:41:56.635Z,4.50
2017-08-31T12:44:23.214Z,4.80
2017-08-31T12:46:49.789Z,5.20
2017-08-31T12:49:16.394Z,5.57
2017-08-31T12:51:42.970Z,5.43
2017-08-31T12:54:09.545Z,7.37
2017-08-31T12:56:36.143Z,8.80
2017-08-31T12:59:02.714Z,8.20
2017-08-31T13:01:29.293Z,7.70
2017-08-31T13:03:55.897Z,6.33
2017-08-31T13:06:22.474Z,7.23
2017-08-31T13:08:49.055Z,8.17
2017-08-31T13:11:15.678Z,7.90
2017-08-31T13:13:42.263Z,9.83
2017-08-31T13:16:08.854Z,8.80
2017-08-31T13:18:35.445Z,9.10
2017-08-31T13:21:02.030Z,9.23
2017-08-31T13:23:28.602Z,8.40
2017-08-31T13:25:55.199Z,8.87
2017-08-31T13:28:21.781Z,7.40
2017-08-31T13:30:48.366Z,7.63
2017-08-31T13:33:14.958Z,7.80
2017-08-31T13:35:41.544Z,6.43
2017-08-31T13:38:08.121Z,6.73
2017-08-31T13:40:34.718Z,5.93
2017-08-31T13:43:01.294Z,7.67
2017-08-31T13:45:27.870Z,6.97
2017-08-31T13:47:54.474Z,5.40
2017-08-31T13:50:21.046Z,5.37
2017-08-31T13:52:47.622Z,7.47
2017-08-31T13:55:14.217Z,6.60
2017-08-31T13:57:40.801Z,10.07
2017-08-31T14:00:07.379Z,5.77
2017-08-31T14:02:33.966Z,5.20
2017-08-31T14:05:00.541Z,5.50
2017-08-31T14:07:27.123Z,6.13
2017-08-31T14:09:54.616Z,4.93
2017-08-31T14:12:21.470Z,8.30
2017-08-31T14:14:48.049Z,6.20
2017-08-31T14:17:14.649Z,5.50
2017-08-31T14:19:41.231Z,6.13
2017-08-31T14:22:07.808Z,9.63
2017-08-31T14:24:34.415Z,7.00
2017-08-31T14:27:00.989Z,5.47
2017-08-31T14:29:27.570Z,6.03
2017-08-31T14:31:54.173Z,6.53
2017-08-31T14:34:20.754Z,7.10
2017-08-31T14:36:47.345Z,6.00
2017-08-31T14:39:13.939Z,6.17
2017-08-31T14:41:40.521Z,12.47
2017-08-31T14:44:07.101Z,5.63
2017-08-31T14:46:33.706Z,8.23
2017-08-31T14:49:00.281Z,6.00
2017-08-31T14:51:26.866Z,6.30
2017-08-31T14:53:53.472Z,7.00
2017-08-31T14:56:20.058Z,6.10
2017-08-31T14:58:46.642Z,5.60
2017-08-31T15:01:13.246Z,5.73
2017-08-31T15:03:39.829Z,6.30
2017-08-31T15:06:06.413Z,5.93
2017-08-31T15:08:33.007Z,7.30
2017-08-31T15:10:59.590Z,6.10
2017-08-31T15:13:26.174Z,8.80
2017-08-31T15:15:52.774Z,6.50
2017-08-31T16:40:15.697Z,8.20
2017-08-31T16:42:42.287Z,7.83
2017-08-31T16:45:09.782Z,9.23
2017-08-31T16:47:36.397Z,9.47
2017-08-31T16:50:02.997Z,11.13
2017-08-31T16:52:29.565Z,7.00
2017-08-31T16:54:56.171Z,7.30
2017-08-31T16:57:22.761Z,11.03
2017-08-31T16:59:49.378Z,7.33
2017-08-31T17:02:15.961Z,9.10
2017-08-31T17:04:42.542Z,5.40
2017-08-31T17:07:09.134Z,5.30
2017-08-31T17:09:35.717Z,6.20
2017-08-31T17:12:02.298Z,7.50
2017-08-31T17:14:28.890Z,5.80
2017-08-31T17:16:55.462Z,9.10
2017-08-31T17:19:22.062Z,5.73
2017-08-31T17:21:48.646Z,7.53
2017-08-31T17:24:15.230Z,7.50
2017-08-31T17:26:41.813Z,5.60
2017-08-31T17:29:08.390Z,6.00
2017-08-31T17:31:34.991Z,5.17
2017-08-31T17:34:01.574Z,8.70
2017-08-31T17:36:28.154Z,5.50
2017-08-31T17:38:54.748Z,6.27
2017-08-31T17:41:21.415Z,8.53
2017-08-31T17:43:48.017Z,8.00
2017-08-31T17:48:47.816Z,8.27
2017-08-31T17:51:14.403Z,8.13
2017-08-31T17:53:40.978Z,6.73
2017-08-31T17:56:07.570Z,11.33
2017-08-31T17:58:34.149Z,8.90
2017-08-31T18:01:00.754Z,8.80
2017-08-31T18:03:27.335Z,9.20
2017-08-31T18:05:53.916Z,6.50
2017-08-31T18:08:20.510Z,6.63
2017-08-31T18:10:47.729Z,8.53
2017-08-31T18:13:14.318Z,6.03
2017-08-31T18:15:47.310Z,8.27
2017-08-31T18:18:13.966Z,7.37
2017-08-31T18:20:40.610Z,6.20
2017-08-31T18:23:07.197Z,7.43
2017-08-31T18:25:33.777Z,7.23
2017-08-31T18:28:00.358Z,8.27
2017-08-31T18:30:26.973Z,6.60
2017-08-31T18:32:53.558Z,9.00
2017-08-31T18:35:20.137Z,8.17
2017-08-31T18:37:47.718Z,12.93
2017-08-31T18:40:17.620Z,6.53
2017-08-31T18:42:44.210Z,5.60
2017-08-31T18:45:11.015Z,11.03
2017-08-31T18:47:43.406Z,6.60
2017-08-31T18:50:09.982Z,6.90
2017-08-31T18:52:44.296Z,7.27
2017-08-31T18:55:10.889Z,5.93
2017-08-31T18:57:44.692Z,7.53
2017-08-31T19:00:11.283Z,6.57
2017-08-31T19:02:44.419Z,6.90
2017-08-31T19:05:10.987Z,6.17
2017-08-31T19:07:44.576Z,8.30
2017-08-31T19:10:11.158Z,6.80
2017-08-31T19:12:37.775Z,7.57
2017-08-31T19:15:04.403Z,8.77
2017-08-31T19:17:34.015Z,10.70
2017-08-31T19:20:03.846Z,8.93
2017-08-31T19:22:34.294Z,8.60
2017-08-31T19:25:00.882Z,6.30
2017-08-31T19:27:31.126Z,7.43
2017-08-31T19:29:57.739Z,11.70
2017-08-31T19:32:31.139Z,9.27
2017-08-31T19:35:01.238Z,9.53
2017-08-31T19:37:27.827Z,11.07
2017-08-31T19:39:54.512Z,12.97
2017-08-31T19:42:31.001Z,6.73
2017-08-31T19:44:58.470Z,12.00
2017-08-31T19:47:25.097Z,8.80
2017-08-31T19:50:01.822Z,6.17
2017-08-31T19:52:28.402Z,7.00
2017-08-31T19:54:54.998Z,12.20
2017-08-31T19:57:21.716Z,12.27
2017-08-31T19:59:48.290Z,9.17
2017-08-31T20:02:14.882Z,7.87
2017-08-31T20:04:51.954Z,7.13
2017-08-31T20:07:18.561Z,6.87
2017-08-31T20:09:45.144Z,8.70
2017-08-31T20:12:22.155Z,6.40
2017-08-31T20:14:50.001Z,8.63
2017-08-31T20:17:16.649Z,6.93
2017-08-31T20:19:50.994Z,6.40
2017-08-31T20:22:23.619Z,13.73
2017-08-31T20:24:50.214Z,8.00
2017-08-31T20:27:16.792Z,7.30
2017-08-31T20:29:43.382Z,12.03
2017-08-31T20:32:09.967Z,6.43
2017-08-31T20:34:36.545Z,9.03
2017-08-31T20:37:03.138Z,9.00
2017-08-31T20:39:29.723Z,7.80
2017-08-31T20:41:56.302Z,7.47
2017-08-31T20:44:22.890Z,6.40
2017-08-31T20:46:49.468Z,7.20
2017-08-31T20:49:16.062Z,8.50
2017-08-31T20:51:42.649Z,9.60
2017-08-31T20:54:09.253Z,8.70
2017-08-31T20:56:35.838Z,9.37
2017-08-31T20:59:02.422Z,7.40
2017-08-31T21:01:29.030Z,8.73
2017-08-31T21:03:55.605Z,8.97
2017-08-31T21:06:22.185Z,8.20
2017-08-31T21:08:48.769Z,12.33
2017-08-31T21:11:15.349Z,6.70
2017-08-31T21:13:41.942Z,6.80
2017-08-31T21:16:08.524Z,8.70
2017-08-31T21:18:35.106Z,14.37
2017-08-31T21:21:01.739Z,7.93
2017-08-31T21:23:28.306Z,7.67
2017-08-31T21:25:54.905Z,11.17
2017-08-31T21:28:21.486Z,10.93
2017-08-31T21:30:48.070Z,7.90
2017-08-31T21:33:14.662Z,9.03
2017-08-31T21:35:41.282Z,9.60
2017-08-31T21:38:07.867Z,9.30
2017-08-31T21:40:34.469Z,7.33
2017-08-31T21:43:01.053Z,8.17
2017-08-31T21:45:27.629Z,12.50
2017-08-31T21:47:54.218Z,8.57
2017-08-31T21:50:20.808Z,10.07
2017-08-31T21:52:47.398Z,8.70
2017-08-31T21:55:14.026Z,7.90
2017-08-31T21:57:40.605Z,10.10
2017-08-31T22:00:07.190Z,9.00
2017-08-31T22:02:33.775Z,17.23
2017-08-31T22:05:00.410Z,16.47
2017-08-31T22:07:26.998Z,10.93
2017-08-31T22:09:53.585Z,9.83
2017-08-31T22:12:20.170Z,11.07
2017-08-31T22:14:46.779Z,8.83
2017-08-31T22:17:13.401Z,10.17
2017-08-31T22:19:39.986Z,8.70
2017-08-31T22:22:06.570Z,9.77
2017-08-31T22:24:33.160Z,13.50
2017-08-31T22:26:59.774Z,8.63
2017-08-31T22:29:26.369Z,10.73
2017-08-31T22:31:53.064Z,11.70
2017-08-31T22:34:19.626Z,8.50
2017-08-31T22:36:46.213Z,11.17
2017-08-31T22:39:12.793Z,9.07
2017-08-31T22:41:39.394Z,9.53
2017-08-31T22:44:05.980Z,12.33
2017-08-31T22:46:32.564Z,12.63
2017-08-31T22:48:59.160Z,10.10
2017-08-31T22:51:25.781Z,10.73
2017-08-31T22:53:52.381Z,11.63
2017-08-31T22:56:18.965Z,13.43
2017-08-31T22:58:45.549Z,10.73
2017-08-31T23:01:12.142Z,8.60
2017-08-31T23:03:38.781Z,10.43
2017-08-31T23:06:05.381Z,10.73
2017-08-31T23:08:32.022Z,8.87
2017-08-31T23:10:58.609Z,10.73
2017-08-31T23:13:25.194Z,9.10
2017-08-31T23:15:51.782Z,12.73
2017-08-31T23:18:18.378Z,11.40
2017-08-31T23:20:44.962Z,15.23
2017-08-31T23:23:11.550Z,13.13
2017-08-31T23:25:38.163Z,15.90
2017-08-31T23:28:04.761Z,13.10
2017-08-31T23:30:31.371Z,16.37
2017-08-31T23:32:57.958Z,17.80
2017-08-31T23:35:24.554Z,19.50
2017-08-31T23:37:54.166Z,15.87
2017-08-31T23:40:20.762Z,16.40
2017-08-31T23:42:47.489Z,16.13
2017-08-31T23:45:14.093Z,15.33
2017-08-31T23:47:40.708Z,16.93
2017-08-31T23:50:07.293Z,14.27
2017-08-31T23:52:33.881Z,15.30
2017-08-31T23:55:00.477Z,15.80
2017-08-31T23:57:27.070Z,16.70
2017-08-31T23:59:53.685Z,15.07
